Historyczne dane pomiarowe

Dodano dane terminowe – wersja testowa.

Dane z okresu 1951-2019

Wersja bazy: 1.34 [2019-03-16, lista zmian], aktualizacja planowana na 2019-04-15

Dane meteo z obszaru Polski uzyskane na podstawie danych udostępnionych przez Instytut Meteorologii i Gospodarki Wodnej – Państwowy Instytut Badawczy.

 

Wybierz Datę:    

       

TemperaturaWilgotnośćWiatrCiśnienieOpadyŚniegCzas trwania zjawisk
 Stacja t tx tn tng RH VA  wxwx mslp ppp RRR   cm mm wxwxwxwxwxwxwx
1961-01-17 -5.1 -0.1 -7.8 -9.0 83.0 3.7----1025.6- 0.0--x- 4.1-------
1961-01-18-10.4 -5.2-14.0-15.4 79.0 2.3----1030.7- 0.0--x- 6.1-------
1961-01-19 -8.4 -1.4-14.3-15.9 72.0 2.4----1023.8- 0.0--x- 7.8-------
1961-01-20 -6.0 1.8-11.8-15.4 72.0 2.9----1017.0- 0.0--x- 7.7-------
1961-01-21 -3.9 -0.7-11.5-15.7 80.0 3.6----1011.6- 0.0--x- 0.0-------
1961-01-22 -0.6 1.1 -6.5-10.1 94.0 5.3----1005.4- 7.1--x- 0.0-------
1961-01-23 -4.9 1.0 -7.4 -1.0 91.0 4.3----1004.0- 0.5--x- 0.0-------
1961-01-24-10.6 -6.5-12.8-11.0 84.0 2.4----1006.0- 0.0--x- 6.7-------
1961-01-25 -9.5 -6.1-13.7-17.8 74.0 2.3----1005.2- 0.1--x- 5.1-------
1961-01-26-14.1 -8.9-17.5-20.3 79.0 1.7----1016.7- 0.0--x- 8.4-------
1961-01-27 -9.7 -1.0-19.2-24.2 64.0 1.9----1021.0- 0.0--x- 8.1-------
1961-01-28 -3.3 -0.8-11.1-21.8 69.0 3.3----1011.2- 0.0--x- 3.9-------
1961-01-29 3.2 6.6 -3.8 -8.3 76.0 5.9----1007.0- 1.2--x- 5.7-------
1961-01-30 5.9 7.7 2.9 3.5 82.0 7.6---- 995.8- 4.5--x- 0.0-------
1961-01-31 5.5 6.3 3.9 1.7 89.0 8.0---- 993.6- 8.7--x- 0.0-------
1961-02-01 3.9 6.4 1.5 -2.2 81.0 6.5---- 989.0- 0.1--x- 0.4-------
1961-02-02 2.7 6.1 1.3 1.0 82.0 6.1---- 984.4- 0.5--x- 5.2-------
1961-02-03 1.0 2.5 0.5 -1.7 92.0 6.1---- 991.1- 0.2--x- 0.0-------
1961-02-04 0.3 3.9 -0.6 -1.5 94.0 6.0---- 995.0- 1.7--x- 1.1-------
1961-02-05 -2.2 0.7 -4.3 -5.4 92.0 5.1----1008.6- 0.0--x- 5.6-------
1961-02-06 2.4 3.7 -4.1 -6.6 86.0 6.1----1002.7- 0.1--x- 0.0-------
1961-02-07 5.0 8.3 2.9 1.4 78.0 6.8---- 998.0- 1.6--x- 3.8-------
1961-02-08 3.1 5.3 1.7 2.9 87.0 6.8----1008.4- 4.7--x- 0.8-------
1961-02-09 6.8 9.5 1.7 -2.5 95.0 9.3----1002.2- 9.5--x- 0.4-------
1961-02-10 3.9 7.0 2.9 3.1 84.0 6.8----1017.2- 0.0--x- 0.0-------
1961-02-11 6.4 8.1 3.9 3.3 82.0 7.9----1005.8- 3.3--x- 0.0-------
1961-02-12 4.6 6.6 3.5 4.3 93.0 8.0----1004.6- 0.8--x- 0.0-------
1961-02-13 5.6 8.0 2.7 -0.8 90.0 8.1----1015.0- 0.1--x- 0.2-------
1961-02-14 5.8 9.3 4.4 5.0 91.0 8.5----1018.3- 0.0--x- 2.2-------
1961-02-15 8.2 15.8 1.5 -3.2 78.0 8.4----1020.0- 0.0--x- 8.0-------
216.7 ms

 

Źródłem pochodzenia danych jest Instytut Meteorologii i Gospodarki Wodnej – Państwowy Instytut Badawczy. Dane Instytutu Meteorologii i Gospodarki Wodnej – Państwowego Instytutu Badawczego zostały przetworzone.

Dane źródłowe można odnaleźć na stronie https://dane.imgw.pl